Pagrindinis puslapis
METAR-TAF:

METAR-TAF

Oro uostai :

Kastamonu, Turkija

platuma: 41-19-01N, ilguma: 33-47-46E, Aukštis: 1073 m

Dabartinis oras

Ataskaita buvo paskelbta 12 valandos ir 59 minutes, ne 10:50 UTC
Vėjas 9 kt iš Vakarų/Pietvakarių
Temperatūra 27°C
Drėgmė 14%
Slėgis 1017 hPa
Matomumas 10 km arba daugiau
nėra debesų žemiau 1500 m ir nėra kamuolinių lietaus debesų

METAR: LTAL 181050Z 25009KT CAVOK 27/M03 Q1017

Laikas: 02:49 (23:49 UTC)

Prognozė

Ataskaita buvo paskelbta 10 valandos ir 9 minutes, ne 13:40 UTC
Prognozė galioja nuo 18 metu 15 UTC su 18 metu 24 UTC
Vėjas 8 kt iš Pietvakarių
Matomumas 10 km arba daugiau
nėra debesų žemiau 1500 m ir nėra kamuolinių lietaus debesų

TAF: LTAL 181340Z 1815/1824 23008KT CAVOK

Orai ataskaitas ir orų prognozės (METAR, TAF).

turimą stotys yra geltonos ir raudonos taškus žemėlapyje.

Perkelti pele per norėdami pamatyti stoties vardą.

Tada spustelėkite, norėdami matyti oro stebėjimo ir prognozės.

Norėdami pakeisti žemėlapį: spustelėkite ant žalios mygtukų su juodo kryžiaus žemyn,; žalią mygtuką su brūkšneliu, jei norite nutolinti; arba žalių rodyklių gretimoms žemėlapius.


METAR-TAF: